Time;durP1;ratioP1;P1;durP2;ratioP2;P2;SDS_P1;SDS_P2;PMS_P1;PMS_P2;Temp;Humidity;BMP_temperature;BMP_pressure;BME280_temperature;BME280_humidity;BME280_pressure;Samples;Min_cycle;Max_cycle;Signal;HPM_P1;HPM_P2
2023/09/16 00:01:02;;;;;;;;;1.00;1.00;;;;;24.11;40.29;101681.70;110258;1250;20953;-39
2023/09/16 00:03:35;;;;;;;;;1.00;1.00;;;;;24.12;40.26;101681.59;110211;1248;20016;-40
2023/09/16 00:06:01;;;;;;;;;2.00;2.00;;;;;24.14;40.23;101680.08;110219;1248;22290;-40
2023/09/16 00:08:27;;;;;;;;;2.00;2.00;;;;;24.13;40.31;101678.05;110198;1251;19686;-40
2023/09/16 00:10:53;;;;;;;;;1.00;1.00;;;;;24.12;40.50;101678.16;110235;1263;18509;-39
2023/09/16 00:13:19;;;;;;;;;1.00;1.00;;;;;24.12;40.47;101680.13;110247;1263;20327;-40
2023/09/16 00:15:45;;;;;;;;;1.00;1.00;;;;;24.13;40.31;101675.86;110206;1247;19554;-39
2023/09/16 00:18:11;;;;;;;;;1.00;1.00;;;;;24.13;40.34;101677.83;110196;1248;22032;-41
2023/09/16 00:20:37;;;;;;;;;1.00;1.00;;;;;24.12;40.39;101677.60;110228;1250;20597;-38
2023/09/16 00:23:04;;;;;;;;;1.00;1.00;;;;;24.11;40.57;101679.52;110142;1263;18541;-39
2023/09/16 00:25:30;;;;;;;;;1.00;1.00;;;;;24.10;40.47;101681.32;110266;1263;21567;-38
2023/09/16 00:27:56;;;;;;;;;1.00;1.00;;;;;24.11;40.62;101683.02;110183;1263;20681;-38
2023/09/16 00:30:22;;;;;;;;;1.00;1.00;;;;;24.14;40.54;101681.83;110241;1248;19754;-39
2023/09/16 00:32:48;;;;;;;;;1.00;1.00;;;;;24.13;40.47;101683.58;110202;1263;18560;-39
2023/09/16 00:35:14;;;;;;;;;1.00;1.00;;;;;24.11;40.70;101685.54;110162;1263;19086;-38
2023/09/16 00:37:41;;;;;;;;;1.00;1.00;;;;;24.12;40.42;101682.70;110211;1251;19370;-39
2023/09/16 00:40:07;;;;;;;;;1.00;1.00;;;;;24.12;40.56;101679.73;110233;1248;22680;-38
2023/09/16 00:42:37;;;;;;;;;1.00;1.00;;;;;24.12;40.53;101678.32;110197;1247;20666;-39
2023/09/16 00:45:03;;;;;;;;;1.00;1.00;;;;;24.14;40.53;101680.52;110277;1248;22242;-40
2023/09/16 00:47:29;;;;;;;;;1.00;1.00;;;;;24.13;40.69;101676.18;110225;1251;21277;-39
2023/09/16 00:49:57;;;;;;;;;1.00;1.00;;;;;24.10;40.62;101672.88;110228;1263;19230;-39
2023/09/16 00:52:23;;;;;;;;;1.00;1.00;;;;;24.11;40.84;101673.33;110175;1248;22696;-39
2023/09/16 00:54:51;;;;;;;;;1.00;1.00;;;;;24.13;40.67;101671.86;110156;1263;20829;-39
2023/09/16 00:57:17;;;;;;;;;1.00;1.00;;;;;24.12;40.67;101673.77;110209;1248;21980;-39
2023/09/16 00:59:43;;;;;;;;;1.00;1.00;;;;;24.12;40.70;101676.23;110304;1248;22369;-39
2023/09/16 01:02:09;;;;;;;;;1.00;1.00;;;;;24.14;40.75;101676.68;110228;1256;22774;-38
2023/09/16 01:04:35;;;;;;;;;1.00;1.00;;;;;24.14;40.74;101678.21;110230;1250;20374;-39
2023/09/16 01:07:02;;;;;;;;;1.00;1.00;;;;;24.15;40.71;101677.95;110248;1264;18291;-39
2023/09/16 01:09:28;;;;;;;;;1.00;1.00;;;;;24.15;40.49;101678.27;110217;1263;20039;-39
2023/09/16 01:11:54;;;;;;;;;1.00;1.00;;;;;24.15;40.53;101674.45;110205;1248;21028;-40
2023/09/16 01:14:20;;;;;;;;;1.00;1.00;;;;;24.15;40.75;101674.98;110243;1263;18391;-38
2023/09/16 01:16:46;;;;;;;;;1.00;1.00;;;;;24.16;40.52;101672.46;110217;1263;19688;-39
2023/09/16 01:19:12;;;;;;;;;1.00;1.00;;;;;24.13;40.72;101671.64;110247;1263;19114;-38
2023/09/16 01:21:38;;;;;;;;;1.00;1.00;;;;;24.16;40.68;101670.71;110222;1251;21513;-38
2023/09/16 01:24:04;;;;;;;;;1.00;1.00;;;;;24.14;40.88;101677.93;110204;1264;19749;-39
2023/09/16 01:26:30;;;;;;;;;1.00;1.00;;;;;24.13;40.82;101677.33;110194;1248;19116;-40
2023/09/16 01:28:56;;;;;;;;;1.00;1.00;;;;;24.10;40.74;101676.34;110243;1251;19448;-40
2023/09/16 01:31:22;;;;;;;;;1.00;1.00;;;;;24.11;40.94;101679.35;110224;1251;19692;-38
2023/09/16 01:33:48;;;;;;;;;1.00;1.00;;;;;24.12;40.85;101678.20;110248;1251;20589;-38
2023/09/16 01:36:14;;;;;;;;;1.00;1.00;;;;;24.13;40.81;101678.80;110245;1252;19463;-38
2023/09/16 01:38:40;;;;;;;;;1.00;1.00;;;;;24.13;40.78;101676.41;110285;1251;20012;-38
2023/09/16 01:41:07;;;;;;;;;1.00;1.00;;;;;24.13;40.89;101675.31;110193;1263;20664;-39
2023/09/16 01:43:33;;;;;;;;;1.00;1.00;;;;;24.12;41.04;101674.92;110153;1248;22697;-38
2023/09/16 01:45:59;;;;;;;;;1.00;1.00;;;;;24.13;40.85;101671.42;110260;1249;19749;-40
2023/09/16 01:48:25;;;;;;;;;1.00;1.00;;;;;24.12;41.02;101672.08;110244;1251;20633;-39
2023/09/16 01:50:51;;;;;;;;;1.00;1.00;;;;;24.14;40.76;101671.27;110226;1259;19846;-40
2023/09/16 01:53:17;;;;;;;;;1.00;1.00;;;;;24.14;40.77;101668.30;110235;1263;18390;-38
2023/09/16 01:55:43;;;;;;;;;1.00;1.00;;;;;24.15;40.73;101670.61;110217;1256;21069;-39
2023/09/16 01:58:09;;;;;;;;;2.00;2.00;;;;;24.13;40.70;101670.92;110264;1253;19414;-39
2023/09/16 02:00:36;;;;;;;;;1.00;1.00;;;;;24.12;41.03;101673.11;110202;1263;22770;-39
2023/09/16 02:03:02;;;;;;;;;1.00;1.00;;;;;24.12;41.07;101675.42;110236;1258;19312;-39
2023/09/16 02:05:28;;;;;;;;;1.00;1.00;;;;;24.14;41.06;101673.84;110213;1257;23450;-39
2023/09/16 02:07:57;;;;;;;;;1.00;1.00;;;;;24.14;41.09;101677.13;110214;1247;18537;-39
2023/09/16 02:10:23;;;;;;;;;2.00;2.00;;;;;24.12;40.96;101677.11;110231;1251;20774;-39
2023/09/16 02:12:48;;;;;;;;;1.00;1.00;;;;;24.14;40.90;101675.04;110275;1251;19365;-37
2023/09/16 02:15:14;;;;;;;;;1.00;1.00;;;;;24.15;40.90;101675.97;110222;1251;21732;-39
2023/09/16 02:17:40;;;;;;;;;1.00;1.00;;;;;24.14;40.83;101677.99;110223;1247;20388;-39
2023/09/16 02:20:06;;;;;;;;;1.00;1.00;;;;;24.13;41.13;101676.34;110158;1251;19504;-39
2023/09/16 02:22:32;;;;;;;;;1.00;1.00;;;;;24.12;40.98;101676.79;110238;1264;18386;-39
2023/09/16 02:24:58;;;;;;;;;1.00;1.00;;;;;24.11;41.04;101673.93;110203;1264;19253;-39
2023/09/16 02:27:24;;;;;;;;;1.00;1.00;;;;;24.11;41.18;101672.95;110210;1251;19411;-39
2023/09/16 02:29:50;;;;;;;;;1.00;1.00;;;;;24.13;40.99;101670.27;110216;1251;19865;-39
2023/09/16 02:32:16;;;;;;;;;1.00;1.00;;;;;24.12;41.18;101665.77;110225;1251;20495;-39
2023/09/16 02:34:42;;;;;;;;;1.00;1.00;;;;;24.14;41.13;101665.89;110203;1249;18129;-39
2023/09/16 02:37:08;;;;;;;;;1.00;1.00;;;;;24.12;41.24;101666.60;110230;1260;19810;-39
2023/09/16 02:39:34;;;;;;;;;2.00;2.00;;;;;24.08;41.21;101662.16;110232;1263;19170;-40
2023/09/16 02:42:00;;;;;;;;;1.00;1.00;;;;;24.09;41.11;101663.41;110225;1263;18086;-38
2023/09/16 02:44:26;;;;;;;;;1.00;1.00;;;;;24.11;41.22;101665.61;110221;1263;18254;-39
2023/09/16 02:46:51;;;;;;;;;1.00;1.00;;;;;24.10;41.12;101663.75;110239;1251;22732;-39
2023/09/16 02:49:17;;;;;;;;;1.00;1.00;;;;;24.09;41.13;101663.96;110223;1264;18442;-39
2023/09/16 02:51:43;;;;;;;;;1.00;1.00;;;;;24.13;41.15;101663.32;110210;1248;22848;-38
2023/09/16 02:54:09;;;;;;;;;1.00;1.00;;;;;24.12;41.13;101669.84;110238;1263;19073;-38
2023/09/16 02:56:35;;;;;;;;;2.00;1.00;;;;;24.13;41.23;101669.39;110232;1248;19341;-39
2023/09/16 02:59:01;;;;;;;;;1.00;1.00;;;;;24.11;41.29;101666.38;110234;1263;18334;-38
2023/09/16 03:01:27;;;;;;;;;1.00;1.00;;;;;24.11;41.20;101666.77;110226;1263;20712;-39
2023/09/16 03:03:53;;;;;;;;;1.00;1.00;;;;;24.12;41.30;101664.41;110216;1249;19322;-39
2023/09/16 03:06:19;;;;;;;;;1.00;1.00;;;;;24.15;41.18;101669.29;110226;1253;22219;-41
2023/09/16 03:08:45;;;;;;;;;1.00;1.00;;;;;24.16;41.03;101667.10;110232;1264;19291;-39
2023/09/16 03:11:11;;;;;;;;;1.00;1.00;;;;;24.14;41.22;101665.95;110227;1263;18822;-39
2023/09/16 03:13:37;;;;;;;;;2.00;2.00;;;;;24.11;41.28;101661.45;110183;1247;20269;-39
2023/09/16 03:16:03;;;;;;;;;1.00;1.00;;;;;24.15;41.35;101662.50;110221;1247;23680;-39
2023/09/16 03:18:29;;;;;;;;;1.00;1.00;;;;;24.13;41.01;101662.23;110225;1263;19987;-39
2023/09/16 03:20:55;;;;;;;;;1.00;1.00;;;;;24.16;41.26;101660.15;110221;1256;22873;-39
2023/09/16 03:23:21;;;;;;;;;1.00;1.00;;;;;24.14;41.28;101659.48;110216;1263;19079;-39
2023/09/16 03:25:47;;;;;;;;;1.00;1.00;;;;;24.16;41.24;101660.05;110230;1247;18403;-39
2023/09/16 03:28:13;;;;;;;;;1.00;1.00;;;;;24.15;41.06;101658.34;110221;1263;18944;-39
2023/09/16 03:30:39;;;;;;;;;1.00;1.00;;;;;24.14;41.22;101656.15;110232;1264;19677;-39
2023/09/16 03:33:05;;;;;;;;;1.00;1.00;;;;;24.16;41.24;101656.10;110230;1263;18244;-39
2023/09/16 03:35:34;;;;;;;;;1.00;1.00;;;;;24.18;41.03;101655.17;110195;1251;19811;-40
2023/09/16 03:38:00;;;;;;;;;1.00;1.00;;;;;24.16;41.26;101654.13;110220;1251;20844;-39
2023/09/16 03:40:26;;;;;;;;;1.00;1.00;;;;;24.13;41.49;101649.30;110215;1248;19256;-39
2023/09/16 03:42:52;;;;;;;;;1.00;1.00;;;;;24.15;41.31;101651.55;110247;1251;19770;-39
2023/09/16 03:45:18;;;;;;;;;1.00;1.00;;;;;24.14;41.27;101649.80;110252;1263;19091;-39
2023/09/16 03:47:44;;;;;;;;;1.00;1.00;;;;;24.14;41.19;101651.55;110231;1250;20685;-39
2023/09/16 03:50:10;;;;;;;;;1.00;1.00;;;;;24.14;41.11;101643.88;110228;1257;20989;-38
2023/09/16 03:52:36;;;;;;;;;1.00;1.00;;;;;24.16;41.27;101643.77;110219;1250;20490;-40
2023/09/16 03:55:03;;;;;;;;;1.00;1.00;;;;;24.15;41.08;101637.59;110220;1248;22748;-40
2023/09/16 03:57:29;;;;;;;;;1.00;1.00;;;;;24.16;41.43;101639.78;110218;1251;20173;-38
2023/09/16 03:59:55;;;;;;;;;1.00;1.00;;;;;24.16;41.27;101640.22;110200;1251;20529;-38
2023/09/16 04:02:21;;;;;;;;;1.00;1.00;;;;;24.15;41.21;101646.89;110229;1247;18476;-38
2023/09/16 04:04:46;;;;;;;;;1.00;1.00;;;;;24.14;41.26;101645.64;110252;1249;18485;-38
2023/09/16 04:07:12;;;;;;;;;1.00;1.00;;;;;24.14;41.20;101650.02;110177;1257;20464;-40
2023/09/16 04:09:38;;;;;;;;;1.00;1.00;;;;;24.16;41.07;101646.24;110245;1250;23808;-38
2023/09/16 04:12:04;;;;;;;;;1.00;1.00;;;;;24.14;41.17;101646.13;110253;1263;18937;-38
2023/09/16 04:14:30;;;;;;;;;1.00;1.00;;;;;24.16;41.37;101647.98;110222;1263;19071;-39
2023/09/16 04:16:56;;;;;;;;;1.00;1.00;;;;;24.15;41.34;101645.09;110229;1251;19359;-38
2023/09/16 04:19:22;;;;;;;;;1.00;1.00;;;;;24.15;41.34;101645.70;110251;1251;19832;-38
2023/09/16 04:21:48;;;;;;;;;1.00;1.00;;;;;24.14;41.32;101643.17;110244;1251;20600;-38
2023/09/16 04:24:14;;;;;;;;;1.00;1.00;;;;;24.16;41.26;101644.33;110228;1264;22375;-38
2023/09/16 04:26:40;;;;;;;;;1.00;1.00;;;;;24.15;41.21;101643.23;110200;1263;22924;-38
2023/09/16 04:29:06;;;;;;;;;1.00;1.00;;;;;24.16;41.24;101646.79;110215;1263;19093;-39
2023/09/16 04:31:32;;;;;;;;;1.00;1.00;;;;;24.15;41.07;101645.14;110228;1247;19541;-39
2023/09/16 04:33:58;;;;;;;;;1.00;1.00;;;;;24.16;41.09;101646.19;110232;1251;19825;-39
2023/09/16 04:36:24;;;;;;;;;1.00;1.00;;;;;24.15;41.25;101640.93;110221;1263;19111;-39
2023/09/16 04:38:49;;;;;;;;;1.00;1.00;;;;;24.15;41.12;101641.59;110226;1248;19331;-39
2023/09/16 04:41:15;;;;;;;;;1.00;1.00;;;;;24.15;41.17;101640.66;110219;1247;22928;-38
2023/09/16 04:43:43;;;;;;;;;1.00;1.00;;;;;24.15;41.22;101640.61;110243;1263;19026;-39
2023/09/16 04:46:09;;;;;;;;;1.00;1.00;;;;;24.15;41.20;101643.34;110227;1263;18574;-39
2023/09/16 04:48:36;;;;;;;;;1.00;1.00;;;;;24.16;41.21;101643.29;110219;1248;21857;-39
2023/09/16 04:51:02;;;;;;;;;1.00;1.00;;;;;24.15;41.33;101645.70;110189;1248;20897;-39
2023/09/16 04:53:28;;;;;;;;;1.00;1.00;;;;;24.15;41.25;101647.50;110231;1264;18476;-39
2023/09/16 04:55:55;;;;;;;;;1.00;1.00;;;;;24.14;41.04;101645.91;110206;1263;18391;-39
2023/09/16 04:58:21;;;;;;;;;1.00;1.00;;;;;24.12;41.21;101653.02;110211;1263;19423;-39
2023/09/16 05:00:49;;;;;;;;;1.00;1.00;;;;;24.12;41.24;101645.31;110163;1263;18163;-39
2023/09/16 05:03:14;;;;;;;;;1.00;1.00;;;;;24.16;41.15;101648.87;110202;1248;23826;-39
2023/09/16 05:05:40;;;;;;;;;1.00;1.00;;;;;24.13;41.15;101645.09;110244;1250;20603;-39
2023/09/16 05:08:06;;;;;;;;;1.00;1.00;;;;;24.18;41.04;101647.40;110263;1263;18059;-39
2023/09/16 05:10:32;;;;;;;;;1.00;1.00;;;;;24.24;40.79;101647.14;110226;1263;18251;-39
2023/09/16 05:12:58;;;;;;;;;1.00;1.00;;;;;24.28;40.59;101654.08;110219;1248;23216;-38
2023/09/16 05:15:25;;;;;;;;;2.00;2.00;;;;;24.25;40.43;101655.58;110218;1264;18352;-39
2023/09/16 05:17:51;;;;;;;;;1.00;1.00;;;;;24.25;40.66;101660.51;110215;1247;22917;-39
2023/09/16 05:20:17;;;;;;;;;1.00;1.00;;;;;24.28;40.47;101662.23;110227;1248;22151;-39
2023/09/16 05:22:43;;;;;;;;;2.00;2.00;;;;;24.29;40.13;101661.08;110213;1253;19421;-39
2023/09/16 05:25:09;;;;;;;;;2.00;2.00;;;;;24.30;40.14;101658.99;110210;1247;18510;-39
2023/09/16 05:27:35;;;;;;;;;2.00;2.00;;;;;24.31;40.20;101657.08;110215;1264;20628;-39
2023/09/16 05:30:01;;;;;;;;;1.00;1.00;;;;;24.33;40.00;101657.20;110140;1251;20773;-39
2023/09/16 05:32:28;;;;;;;;;1.00;1.00;;;;;24.39;39.91;101660.27;110251;1263;18807;-38
2023/09/16 05:34:54;;;;;;;;;1.00;1.00;;;;;24.43;39.97;101663.02;110208;1248;21971;-39
2023/09/16 05:37:20;;;;;;;;;1.00;1.00;;;;;24.45;39.90;101664.27;110237;1251;20809;-39
2023/09/16 05:39:46;;;;;;;;;2.00;2.00;;;;;24.47;39.93;101664.93;110231;1250;19815;-39
2023/09/16 05:42:12;;;;;;;;;2.00;2.00;;;;;24.49;39.82;101664.38;110198;1248;22280;-39
2023/09/16 05:44:38;;;;;;;;;1.50;1.50;;;;;24.49;39.57;101665.48;110200;1264;18145;-41
2023/09/16 05:47:04;;;;;;;;;2.00;2.00;;;;;24.51;39.38;101666.08;110222;1263;22343;-39
2023/09/16 05:49:30;;;;;;;;;2.00;2.00;;;;;24.53;39.53;101667.01;110130;1251;20945;-39
2023/09/16 05:51:56;;;;;;;;;2.00;2.00;;;;;24.52;39.45;101665.64;110244;1264;19630;-38
2023/09/16 05:54:22;;;;;;;;;8.00;6.00;;;;;24.49;39.09;101666.46;110196;1248;19734;-40
2023/09/16 05:56:49;;;;;;;;;8.00;7.00;;;;;23.82;37.37;101667.10;110222;1263;20284;-38
2023/09/16 05:59:15;;;;;;;;;9.33;8.00;;;;;23.31;37.07;101665.88;110179;1248;19735;-38
2023/09/16 06:01:41;;;;;;;;;8.00;8.00;;;;;23.26;36.78;101669.13;110140;1248;22203;-38
2023/09/16 06:04:08;;;;;;;;;8.00;8.00;;;;;22.98;36.96;101669.13;110248;1264;22555;-38
2023/09/16 06:06:34;;;;;;;;;8.00;7.00;;;;;23.01;36.57;101667.66;110229;1249;19678;-37
2023/09/16 06:09:00;;;;;;;;;8.00;7.00;;;;;23.24;36.64;101668.90;110123;1263;136456;-38
2023/09/16 06:11:28;;;;;;;;;7.00;7.00;;;;;23.37;36.83;101673.13;110240;1251;20474;-38
2023/09/16 06:13:54;;;;;;;;;7.00;5.00;;;;;23.35;36.91;101673.23;110199;1263;19626;-38
2023/09/16 06:16:20;;;;;;;;;6.00;6.00;;;;;23.40;37.01;101666.75;110227;1251;19793;-38
2023/09/16 06:18:46;;;;;;;;;8.00;8.00;;;;;23.38;37.26;101667.61;110259;1251;20466;-39
2023/09/16 06:21:12;;;;;;;;;9.00;8.00;;;;;23.41;37.08;101665.27;110286;1249;19312;-37
2023/09/16 06:23:38;;;;;;;;;7.50;7.50;;;;;23.48;36.88;101665.64;110286;1251;19686;-40
2023/09/16 06:26:04;;;;;;;;;8.00;6.00;;;;;23.35;37.11;101662.95;110284;1248;19680;-39
2023/09/16 06:28:31;;;;;;;;;6.00;6.00;;;;;23.49;37.05;101661.27;110296;1263;19766;-40
2023/09/16 06:30:57;;;;;;;;;8.00;8.00;;;;;23.45;37.14;101665.73;110313;1248;22436;-37
2023/09/16 06:33:23;;;;;;;;;6.00;6.00;;;;;23.47;36.99;101665.31;110322;1263;19503;-38
2023/09/16 06:35:49;;;;;;;;;7.00;7.00;;;;;23.57;37.02;101664.83;110285;1263;18279;-38
2023/09/16 06:38:15;;;;;;;;;9.00;8.00;;;;;23.64;36.88;101665.52;110214;1257;22184;-38
2023/09/16 06:40:41;;;;;;;;;8.50;8.00;;;;;23.71;37.02;101665.16;110230;1251;20490;-38
2023/09/16 06:43:07;;;;;;;;;7.00;7.00;;;;;23.58;37.32;101665.33;110220;1257;19596;-39
2023/09/16 06:45:33;;;;;;;;;8.00;8.00;;;;;23.59;37.07;101669.55;110215;1257;19692;-38
2023/09/16 06:47:59;;;;;;;;;8.00;6.00;;;;;23.68;37.18;101666.41;110262;1263;20573;-38
2023/09/16 06:50:25;;;;;;;;;8.00;8.00;;;;;23.69;37.19;101667.79;110252;1250;19668;-38
2023/09/16 06:52:51;;;;;;;;;6.00;6.00;;;;;23.66;37.35;101665.92;110306;1263;19763;-39
2023/09/16 06:55:16;;;;;;;;;;;;;;;23.58;37.48;101661.94;110296;1263;19896;-38
2023/09/16 06:57:43;;;;;;;;;165.50;118.50;;;;;23.49;37.52;101660.52;110253;1247;22824;-39
2023/09/16 07:00:10;;;;;;;;;212.33;163.00;;;;;23.53;37.34;101659.71;110234;1264;22417;-39
2023/09/16 07:02:36;;;;;;;;;196.33;147.33;;;;;23.58;37.27;101660.79;110194;1248;21866;-39
2023/09/16 07:05:02;;;;;;;;;143.75;107.00;;;;;23.47;37.59;101665.96;110262;1251;20375;-39
2023/09/16 07:07:28;;;;;;;;;106.00;74.50;;;;;23.60;37.28;101667.41;110255;1251;19984;-38
2023/09/16 07:09:54;;;;;;;;;93.50;67.50;;;;;23.68;37.40;101667.08;110229;1263;19094;-38
2023/09/16 07:12:20;;;;;;;;;78.00;59.00;;;;;23.72;37.29;101660.08;110255;1263;19005;-37
2023/09/16 07:14:46;;;;;;;;;62.67;45.00;;;;;23.77;37.20;101658.95;110273;1263;20269;-40
2023/09/16 07:17:12;;;;;;;;;53.00;40.50;;;;;23.77;37.16;101657.98;110311;1251;20671;-39
2023/09/16 07:19:38;;;;;;;;;36.50;31.50;;;;;23.80;37.19;101661.04;110286;1257;19657;-39
2023/09/16 07:22:04;;;;;;;;;29.50;27.50;;;;;23.79;37.37;101661.20;110202;1263;18660;-38
2023/09/16 07:24:30;;;;;;;;;26.00;19.50;;;;;23.89;37.40;101666.16;110190;1257;22941;-38
2023/09/16 07:26:56;;;;;;;;;17.00;15.00;;;;;23.92;37.16;101666.55;110265;1264;20913;-38
2023/09/16 07:29:22;;;;;;;;;17.50;12.50;;;;;23.82;37.25;101661.15;110284;1248;20107;-38
2023/09/16 07:31:48;;;;;;;;;14.00;10.00;;;;;23.83;37.64;101662.98;110281;1263;19513;-38
2023/09/16 07:34:15;;;;;;;;;12.00;11.00;;;;;23.80;37.69;101656.23;110252;1257;22037;-39
2023/09/16 07:36:41;;;;;;;;;9.00;9.00;;;;;23.80;37.89;101659.17;110277;1249;20120;-39
2023/09/16 07:39:07;;;;;;;;;11.00;11.00;;;;;23.77;38.19;101656.82;110251;1251;20642;-39
2023/09/16 07:41:33;;;;;;;;;8.00;8.00;;;;;23.73;38.19;101656.20;110278;1263;18793;-39
2023/09/16 07:43:59;;;;;;;;;8.50;8.50;;;;;23.74;38.32;101662.11;110290;1251;22540;-39
2023/09/16 07:46:25;;;;;;;;;8.50;8.50;;;;;23.71;38.73;101662.05;110264;1263;19671;-39
2023/09/16 07:48:51;;;;;;;;;10.00;7.00;;;;;23.84;38.77;101656.89;110291;1248;19688;-39
2023/09/16 07:51:17;;;;;;;;;8.00;6.00;;;;;23.91;38.91;101659.60;110248;1264;18558;-39
2023/09/16 07:53:43;;;;;;;;;8.00;8.00;;;;;23.94;38.82;101659.55;110220;1250;20774;-39
2023/09/16 07:56:09;;;;;;;;;10.00;8.00;;;;;23.95;38.68;101658.41;110241;1257;19244;-38
2023/09/16 07:58:35;;;;;;;;;9.50;8.50;;;;;24.00;38.70;101657.87;110292;1263;20929;-37
2023/09/16 08:01:01;;;;;;;;;10.00;8.50;;;;;24.01;38.86;101660.88;110275;1250;22756;-37
2023/09/16 08:03:27;;;;;;;;;9.00;8.50;;;;;23.91;38.72;101661.95;110223;1263;19994;-38
2023/09/16 08:05:53;;;;;;;;;9.00;8.00;;;;;23.91;38.94;101661.08;110230;1263;22305;-37
2023/09/16 08:08:19;;;;;;;;;8.00;8.00;;;;;24.01;38.70;101656.23;110220;1250;22311;-38
2023/09/16 08:10:46;;;;;;;;;8.00;8.00;;;;;24.06;38.49;101649.50;110231;1257;19778;-38
2023/09/16 08:13:12;;;;;;;;;6.00;6.00;;;;;24.08;38.64;101644.48;110251;1256;19933;-39
2023/09/16 08:15:38;;;;;;;;;7.00;7.00;;;;;24.06;38.48;101640.10;110229;1264;21936;-39
2023/09/16 08:18:04;;;;;;;;;6.00;6.00;;;;;24.09;38.48;101633.47;110161;1248;19629;-38
2023/09/16 08:20:29;;;;;;;;;9.00;8.00;;;;;24.12;38.46;101632.72;110168;1263;19753;-39
2023/09/16 08:22:56;;;;;;;;;8.00;8.00;;;;;24.10;38.53;101633.09;110262;1250;20467;-39
2023/09/16 08:25:22;;;;;;;;;9.00;6.67;;;;;24.09;38.97;101633.80;110213;1248;22324;-38
2023/09/16 08:27:48;;;;;;;;;9.00;8.00;;;;;24.10;39.18;101633.42;110217;1248;19903;-39
2023/09/16 08:30:14;;;;;;;;;8.00;6.00;;;;;24.09;39.22;101632.33;110217;1263;19929;-38
2023/09/16 08:32:40;;;;;;;;;7.00;6.00;;;;;24.15;39.13;101631.95;110214;1249;23289;-38
2023/09/16 08:35:06;;;;;;;;;6.00;6.00;;;;;24.19;39.35;101634.75;110230;1263;18648;-38
2023/09/16 08:37:32;;;;;;;;;6.00;6.00;;;;;24.19;39.54;101632.12;110221;1263;19098;-38
2023/09/16 08:39:58;;;;;;;;;6.00;6.00;;;;;24.25;39.49;101629.02;110191;1248;21864;-38
2023/09/16 08:42:24;;;;;;;;;5.00;5.00;;;;;24.19;39.48;101627.52;110238;1248;19868;-38
2023/09/16 08:44:50;;;;;;;;;5.00;5.00;;;;;24.18;39.65;101621.06;110266;1248;21897;-38
2023/09/16 08:47:16;;;;;;;;;7.00;6.00;;;;;24.17;39.80;101623.85;110267;1264;19432;-38
2023/09/16 08:49:42;;;;;;;;;6.00;6.00;;;;;24.19;39.55;101619.04;110211;1250;19756;-38
2023/09/16 08:52:08;;;;;;;;;8.00;6.00;;;;;24.15;39.55;101623.14;110233;1247;19091;-38
2023/09/16 08:54:34;;;;;;;;;6.00;6.00;;;;;24.18;39.53;101617.17;110218;1263;18353;-38
2023/09/16 08:57:01;;;;;;;;;8.00;6.00;;;;;24.16;39.61;101613.67;110195;1248;22535;-38
2023/09/16 08:59:27;;;;;;;;;6.00;6.00;;;;;24.16;39.60;101610.65;110199;1263;20744;-38
2023/09/16 09:01:52;;;;;;;;;9.00;8.00;;;;;24.17;39.74;101606.83;110295;1251;19364;-38
2023/09/16 09:04:18;;;;;;;;;6.00;6.00;;;;;24.17;39.74;101608.80;110291;1264;20686;-38
2023/09/16 09:06:44;;;;;;;;;5.00;5.00;;;;;24.16;39.80;101607.70;110276;1250;22289;-38
2023/09/16 09:09:10;;;;;;;;;6.00;6.00;;;;;24.17;39.77;101599.77;110286;1248;19474;-38
2023/09/16 09:11:36;;;;;;;;;4.50;4.50;;;;;24.17;39.67;101593.85;110262;1263;19969;-38
2023/09/16 09:14:03;;;;;;;;;6.00;5.50;;;;;24.16;39.72;101592.04;110157;1251;20542;-38
2023/09/16 09:16:29;;;;;;;;;8.00;6.00;;;;;24.19;39.59;101599.10;110156;1263;22689;-38
2023/09/16 09:18:55;;;;;;;;;8.00;7.00;;;;;24.20;39.66;101601.14;110215;1247;22715;-38
2023/09/16 09:21:21;;;;;;;;;5.50;5.00;;;;;24.20;39.63;101602.17;110205;1250;19377;-38
2023/09/16 09:23:47;;;;;;;;;5.50;5.50;;;;;24.20;39.73;101596.86;110228;1263;18258;-38
2023/09/16 09:26:14;;;;;;;;;6.00;6.00;;;;;24.13;39.76;101594.27;110197;1247;24433;-38
2023/09/16 09:28:40;;;;;;;;;8.00;5.50;;;;;24.17;39.76;101597.08;110220;1263;20681;-38
2023/09/16 09:31:06;;;;;;;;;5.00;5.00;;;;;24.16;39.57;101595.77;110295;1264;22946;-38
2023/09/16 09:33:32;;;;;;;;;9.00;6.00;;;;;24.17;39.56;101592.75;110306;1247;19765;-38
2023/09/16 09:35:58;;;;;;;;;4.00;4.00;;;;;24.17;39.56;101591.11;110230;1248;22197;-38
2023/09/16 09:38:24;;;;;;;;;6.00;6.00;;;;;24.14;39.59;101581.74;110254;1263;20854;-38
2023/09/16 09:40:50;;;;;;;;;6.00;6.00;;;;;24.13;39.65;101583.17;110226;1251;19841;-39
2023/09/16 09:43:16;;;;;;;;;6.00;6.00;;;;;24.16;39.58;101579.02;110243;1257;19210;-38
2023/09/16 09:45:42;;;;;;;;;7.00;6.00;;;;;24.18;39.19;101575.77;110213;1252;19375;-38
2023/09/16 09:48:08;;;;;;;;;5.00;5.00;;;;;24.18;39.26;101582.46;110221;1251;19839;-38
2023/09/16 09:50:34;;;;;;;;;8.00;6.00;;;;;24.15;39.32;101574.95;110250;1248;20526;-38
2023/09/16 09:52:59;;;;;;;;;5.00;5.00;;;;;24.01;39.25;101570.57;110257;1263;19427;-39
2023/09/16 09:55:25;;;;;;;;;6.00;6.00;;;;;24.12;39.30;101576.65;110237;1260;19777;-37
2023/09/16 09:57:51;;;;;;;;;5.50;5.00;;;;;24.12;39.44;101565.44;110280;1248;20482;-38
2023/09/16 10:00:17;;;;;;;;;4.50;4.50;;;;;24.12;39.20;101553.50;110266;1251;19418;-39
2023/09/16 10:02:43;;;;;;;;;5.00;4.00;;;;;24.13;39.38;101547.96;110265;1251;19763;-38
2023/09/16 10:05:09;;;;;;;;;6.00;5.00;;;;;24.11;39.27;101546.87;110223;1248;20775;-38
2023/09/16 10:07:35;;;;;;;;;4.50;4.50;;;;;24.12;39.23;101550.10;110206;1263;21172;-37
2023/09/16 10:10:01;;;;;;;;;5.00;5.00;;;;;24.17;39.36;101543.31;110226;1250;20186;-38
2023/09/16 10:12:27;;;;;;;;;5.00;5.00;;;;;24.15;38.96;101542.60;110224;1264;21509;-38
2023/09/16 10:14:53;;;;;;;;;6.00;5.00;;;;;24.15;38.98;101539.21;110239;1250;19464;-37
2023/09/16 10:17:19;;;;;;;;;5.00;5.00;;;;;24.12;39.06;101535.65;110248;1251;19765;-37
2023/09/16 10:19:45;;;;;;;;;5.00;5.00;;;;;24.14;39.23;101537.52;110232;1247;21625;-37
2023/09/16 10:22:11;;;;;;;;;5.00;4.50;;;;;24.17;39.21;101526.67;110199;1264;18569;-38
2023/09/16 10:24:37;;;;;;;;;4.00;4.00;;;;;24.17;39.04;101524.70;110245;1250;19777;-37
2023/09/16 10:27:03;;;;;;;;;6.00;6.00;;;;;24.20;38.88;101525.09;110217;1250;20609;-37
2023/09/16 10:29:29;;;;;;;;;5.00;5.00;;;;;24.17;38.97;101525.14;110224;1253;22847;-37
2023/09/16 10:31:55;;;;;;;;;8.00;6.00;;;;;24.19;38.76;101520.48;110184;1264;18813;-37
2023/09/16 10:34:21;;;;;;;;;6.00;5.00;;;;;24.14;39.03;101511.72;110245;1250;20611;-37
2023/09/16 10:36:47;;;;;;;;;5.00;5.00;;;;;24.17;38.90;101521.14;110218;1264;18201;-37
2023/09/16 10:39:14;;;;;;;;;5.00;5.00;;;;;24.16;38.93;101515.23;110221;1251;19838;-37
2023/09/16 10:41:40;;;;;;;;;6.00;5.00;;;;;24.17;38.77;101510.95;110216;1251;20757;-38
2023/09/16 10:44:06;;;;;;;;;5.00;5.00;;;;;24.15;38.83;101505.48;110222;1264;22200;-38
2023/09/16 10:46:32;;;;;;;;;5.00;4.00;;;;;24.16;38.89;101500.83;110208;1251;21816;-38
2023/09/16 10:48:58;;;;;;;;;5.00;5.00;;;;;24.18;38.84;101497.33;110251;1250;20390;-38
2023/09/16 10:51:24;;;;;;;;;5.00;5.00;;;;;24.15;39.03;101500.45;110244;1264;18476;-38
2023/09/16 10:53:50;;;;;;;;;5.00;5.00;;;;;24.18;39.17;101491.58;110274;1251;20280;-38
2023/09/16 10:56:16;;;;;;;;;5.00;5.00;;;;;24.17;38.85;101485.11;110221;1251;20824;-38
2023/09/16 10:58:42;;;;;;;;;5.00;5.00;;;;;24.16;39.02;101484.35;110267;1253;19412;-38
2023/09/16 11:01:08;;;;;;;;;5.00;5.00;;;;;24.15;38.93;101482.33;110240;1251;18352;-38
2023/09/16 11:03:34;;;;;;;;;8.00;6.00;;;;;24.14;38.91;101480.14;110197;1264;20700;-38
2023/09/16 11:06:01;;;;;;;;;6.00;6.00;;;;;24.11;38.81;101470.01;110174;1251;22155;-38
2023/09/16 11:08:27;;;;;;;;;5.50;5.50;;;;;24.10;38.92;101476.69;110257;1264;18673;-38
2023/09/16 11:10:53;;;;;;;;;5.50;5.00;;;;;24.11;38.56;101469.20;110174;1264;20394;-38